KBNW/BNW METAR and TAF weather

Enter ICAO airport designator
Station Type Date Time Source
KBNW METAR 2022/06/28 14:55 UTC NOAA

KBNW 281455Z AUTO 23012KT 10SM CLR 24/11 A3022 RMK AO2


Station Type Date Time Source
KBNW Decoded METAR 2022/06/28 14:55 UTC NOAA

Boone Municipal, IA, United States (KBNW) 42-03N 093-51W
Jun 28, 2022 - 10:55 AM EDT / 2022.06.28 1455 UTC
Wind: from the SW (230 degrees) at 14 MPH (12 KT):0
Visibility: 10 mile(s):0
Sky conditions: clear
Temperature: 75 F (24 C)
Dew Point: 51 F (11 C)
Relative Humidity: 43%
Pressure (altimeter): 30.22 in. Hg (1023 hPa)
ob: KBNW 281455Z AUTO 23012KT 10SM CLR 24/11 A3022 RMK AO2
cycle: 15

Station Type Date Time Source
KBNW TAF UTC NOAA

Error!

Example: see airport list